createdAt,value
2019-06-07T00:01:48.779Z,101086.52
2019-06-07T00:04:21.308Z,101080.21
2019-06-07T00:06:49.475Z,101087.00
2019-06-07T00:09:22.699Z,101085.52
2019-06-07T00:11:50.257Z,101085.81
2019-06-07T00:14:21.194Z,101084.14
2019-06-07T00:16:50.732Z,101076.45
2019-06-07T00:19:20.197Z,101070.52
2019-06-07T00:24:21.871Z,101075.34
2019-06-07T00:26:58.450Z,101071.15
2019-06-07T00:29:22.961Z,101068.37
2019-06-07T00:31:52.473Z,101070.80
2019-06-07T00:34:23.018Z,101071.76
2019-06-07T00:36:52.879Z,101071.06
2019-06-07T00:39:25.610Z,101066.67
2019-06-07T00:41:53.626Z,101064.92
2019-06-07T00:44:23.630Z,101062.19
2019-06-07T00:46:53.170Z,101066.03
2019-06-07T00:49:40.149Z,101071.37
2019-06-07T00:51:54.029Z,101076.33
2019-06-07T00:54:24.853Z,101075.00
2019-06-07T00:56:54.606Z,101070.05
2019-06-07T00:59:29.140Z,101065.81
2019-06-07T01:01:55.452Z,101066.28
2019-06-07T01:04:26.073Z,101064.84
2019-06-07T01:06:56.140Z,101068.38
2019-06-07T01:09:25.822Z,101065.00
2019-06-07T01:11:55.427Z,101060.69
2019-06-07T01:14:28.086Z,101054.11
2019-06-07T01:17:07.065Z,101055.52
2019-06-07T01:19:27.921Z,101064.19
2019-06-07T01:21:57.876Z,101069.19
2019-06-07T01:24:28.026Z,101073.54
2019-06-07T01:26:57.824Z,101066.96
2019-06-07T01:29:30.348Z,101068.50
2019-06-07T01:31:58.487Z,101058.61
2019-06-07T01:34:28.929Z,101067.81
2019-06-07T01:36:58.607Z,101071.44
2019-06-07T01:39:31.072Z,101070.20
2019-06-07T01:41:59.548Z,101067.68
2019-06-07T01:44:31.038Z,101075.63
2019-06-07T01:47:00.221Z,101088.25
2019-06-07T01:49:30.085Z,101079.69
2019-06-07T01:51:59.833Z,101067.97
2019-06-07T01:57:00.525Z,101053.44
2019-06-07T01:59:31.586Z,101070.25
2019-06-07T02:02:01.263Z,101060.70
2019-06-07T02:04:33.224Z,101059.39
2019-06-07T02:07:02.008Z,101052.38
2019-06-07T02:09:32.188Z,101054.42
2019-06-07T02:12:01.844Z,101049.81
2019-06-07T02:14:33.561Z,101045.83
2019-06-07T02:17:02.661Z,101045.23
2019-06-07T02:19:33.364Z,101045.30
2019-06-07T02:22:03.193Z,101049.28
2019-06-07T02:24:36.152Z,101046.20
2019-06-07T02:27:03.996Z,101048.92
2019-06-07T02:29:33.865Z,101032.94
2019-06-07T02:32:03.652Z,101029.02
2019-06-07T02:34:38.735Z,101034.19
2019-06-07T02:37:04.491Z,101028.07
2019-06-07T02:39:40.389Z,101030.00
2019-06-07T02:42:06.641Z,101019.41
2019-06-07T02:44:39.664Z,101020.66
2019-06-07T02:47:07.325Z,101018.30
2019-06-07T02:49:40.883Z,101023.52
2019-06-07T02:52:08.029Z,101019.55
2019-06-07T02:54:40.365Z,101027.00
2019-06-07T02:57:08.798Z,101031.05
2019-06-07T03:00:04.380Z,101035.30
2019-06-07T03:02:09.461Z,101028.33
2019-06-07T03:04:43.838Z,101031.95
2019-06-07T03:07:13.034Z,101035.05
2019-06-07T03:09:43.291Z,101044.54
2019-06-07T03:12:13.867Z,101046.94
2019-06-07T03:14:44.720Z,101042.45
2019-06-07T03:17:30.463Z,101046.11
2019-06-07T03:20:02.513Z,101039.01
2019-06-07T03:22:40.577Z,101039.61
2019-06-07T03:25:07.364Z,101036.11
2019-06-07T03:27:48.634Z,101036.18
2019-06-07T03:30:36.299Z,101030.87
2019-06-07T03:32:47.405Z,101032.66
2019-06-07T03:35:12.504Z,101032.23
2019-06-07T03:37:43.040Z,101029.58
2019-06-07T03:40:12.795Z,101034.53
2019-06-07T03:42:42.297Z,101036.29
2019-06-07T03:45:11.865Z,101034.20
2019-06-07T03:47:42.654Z,101030.02
2019-06-07T03:50:12.535Z,101026.72
2019-06-07T03:52:42.136Z,101028.33
2019-06-07T03:55:11.591Z,101027.95
2019-06-07T03:58:29.972Z,101025.95
2019-06-07T04:00:12.413Z,101032.19
2019-06-07T04:02:46.061Z,101030.45
2019-06-07T04:05:20.436Z,101024.09
2019-06-07T04:07:49.876Z,101028.44
2019-06-07T04:10:19.333Z,101035.84
2019-06-07T04:12:48.903Z,101036.75
2019-06-07T04:15:18.372Z,101045.75
2019-06-07T04:18:01.350Z,101045.30
2019-06-07T04:20:19.258Z,101042.31
2019-06-07T04:22:49.572Z,101038.84
2019-06-07T04:25:19.021Z,101038.84
2019-06-07T04:27:48.578Z,101031.53
2019-06-07T04:30:34.169Z,101023.50
2019-06-07T04:33:01.478Z,101026.76
2019-06-07T04:35:32.944Z,101032.58
2019-06-07T04:38:02.799Z,101033.98
2019-06-07T04:40:34.397Z,101035.18
2019-06-07T04:43:04.756Z,101028.72
2019-06-07T04:45:41.805Z,101043.21
2019-06-07T04:48:07.675Z,101035.16
2019-06-07T04:50:43.478Z,101036.00
2019-06-07T04:53:09.937Z,101044.59
2019-06-07T04:55:41.588Z,101041.10
2019-06-07T04:58:10.584Z,101047.16
2019-06-07T05:00:55.649Z,101049.39
2019-06-07T05:03:11.252Z,101043.59
2019-06-07T05:05:43.238Z,101041.01
2019-06-07T05:08:27.524Z,101046.89
2019-06-07T05:10:44.064Z,101050.26
2019-06-07T05:13:13.732Z,101053.90
2019-06-07T05:15:43.194Z,101055.77
2019-06-07T05:18:12.683Z,101058.32
2019-06-07T05:20:44.635Z,101058.39
2019-06-07T05:23:59.545Z,101063.63
2019-06-07T05:25:45.675Z,101053.89
2019-06-07T05:28:15.148Z,101051.30
2019-06-07T05:31:03.822Z,101049.52
2019-06-07T05:33:16.457Z,101052.73
2019-06-07T05:35:45.918Z,101052.01
2019-06-07T05:38:15.462Z,101050.09
2019-06-07T05:40:48.521Z,101049.75
2019-06-07T05:43:24.805Z,101055.80
2019-06-07T05:45:54.301Z,101053.79
2019-06-07T05:48:23.759Z,101052.57
2019-06-07T05:50:57.044Z,101053.50
2019-06-07T05:53:24.439Z,101057.00
2019-06-07T05:55:54.086Z,101055.85
2019-06-07T05:58:23.523Z,101060.25
2019-06-07T06:00:53.015Z,101064.57
2019-06-07T06:03:22.487Z,101073.53
2019-06-07T06:05:55.384Z,101079.84
2019-06-07T06:08:23.230Z,101086.88
2019-06-07T06:10:52.708Z,101102.56
2019-06-07T06:13:22.166Z,101098.68
2019-06-07T06:16:01.122Z,101092.45
2019-06-07T06:18:22.895Z,101089.19
2019-06-07T06:21:15.686Z,101088.52
2019-06-07T06:23:24.438Z,101085.44
2019-06-07T06:25:57.643Z,101081.53
2019-06-07T06:28:25.133Z,101088.03
2019-06-07T06:30:54.792Z,101084.72
2019-06-07T06:33:33.481Z,101084.48
2019-06-07T06:35:55.478Z,101076.59
2019-06-07T06:38:25.390Z,101070.00
2019-06-07T06:41:12.150Z,101075.08
2019-06-07T06:43:26.086Z,101074.37
2019-06-07T06:45:55.575Z,101068.59
2019-06-07T06:48:25.035Z,101071.37
2019-06-07T06:50:54.553Z,101073.37
2019-06-07T06:53:24.046Z,101070.70
2019-06-07T06:55:53.495Z,101067.66
2019-06-07T06:58:22.952Z,101071.84
2019-06-07T07:01:05.466Z,101073.98
2019-06-07T07:03:56.618Z,101079.86
2019-06-07T07:05:56.514Z,101077.81
2019-06-07T07:08:25.979Z,101083.80
2019-06-07T07:10:55.480Z,101084.42
2019-06-07T07:13:25.084Z,101082.39
2019-06-07T07:15:57.852Z,101080.80
2019-06-07T07:18:25.806Z,101073.90
2019-06-07T07:20:57.406Z,101067.02
2019-06-07T07:23:26.606Z,101065.02
2019-06-07T07:25:59.386Z,101064.82
2019-06-07T07:28:27.321Z,101066.15
2019-06-07T07:30:57.458Z,101064.75
2019-06-07T07:34:19.945Z,101063.82
2019-06-07T07:36:35.202Z,101060.01
2019-06-07T07:38:29.683Z,101058.28
2019-06-07T07:41:13.810Z,101059.25
2019-06-07T07:43:30.333Z,101066.10
2019-06-07T07:46:03.530Z,101064.13
2019-06-07T07:48:31.292Z,101065.30
2019-06-07T07:51:03.152Z,101065.81
2019-06-07T07:53:47.853Z,101068.54
2019-06-07T07:56:03.342Z,101068.61
2019-06-07T07:58:32.910Z,101068.25
2019-06-07T08:01:10.141Z,101070.61
2019-06-07T08:03:33.594Z,101072.14
2019-06-07T08:06:03.097Z,101068.19
2019-06-07T08:08:32.613Z,101061.53
2019-06-07T08:11:02.584Z,101069.78
2019-06-07T08:13:32.291Z,101068.05
2019-06-07T08:16:10.570Z,101077.41
2019-06-07T08:18:33.128Z,101066.41
2019-06-07T08:21:21.402Z,101076.52
2019-06-07T08:23:33.904Z,101070.68
2019-06-07T08:26:03.567Z,101067.63
2019-06-07T08:28:33.026Z,101063.31
2019-06-07T08:31:06.871Z,101060.98
2019-06-07T08:33:33.715Z,101054.98
2019-06-07T08:36:14.092Z,101045.61
2019-06-07T08:38:47.689Z,101049.73
2019-06-07T08:41:11.996Z,101047.38
2019-06-07T08:43:37.086Z,101041.34
2019-06-07T08:46:07.878Z,101045.33
2019-06-07T08:48:37.697Z,101040.55
2019-06-07T08:51:08.518Z,101033.16
2019-06-07T08:53:38.366Z,101035.05
2019-06-07T08:56:11.157Z,101032.38
2019-06-07T08:58:39.229Z,101031.39
2019-06-07T09:01:09.259Z,101036.07
2019-06-07T09:03:39.339Z,101032.39
2019-06-07T09:06:53.686Z,101039.23
2019-06-07T09:08:40.195Z,101035.39
2019-06-07T09:11:11.379Z,101031.88
2019-06-07T09:13:41.234Z,101028.07
2019-06-07T09:16:10.927Z,101022.39
2019-06-07T09:18:43.708Z,101023.55
2019-06-07T09:21:11.772Z,101022.05
2019-06-07T09:23:42.316Z,101016.87
2019-06-07T09:26:18.202Z,101018.72
2019-06-07T09:28:44.815Z,101015.20
2019-06-07T09:31:14.393Z,101010.67
2019-06-07T09:33:44.131Z,101001.15
2019-06-07T09:36:13.918Z,101005.95
2019-06-07T09:38:44.468Z,101003.30
2019-06-07T09:41:13.928Z,101006.13
2019-06-07T09:46:16.314Z,100994.91
2019-06-07T09:51:19.910Z,100985.23
2019-06-07T09:53:48.431Z,100983.14
2019-06-07T09:56:17.879Z,100978.96
2019-06-07T09:58:53.173Z,100988.05
2019-06-07T10:01:18.852Z,100985.08
2019-06-07T10:03:48.313Z,100979.42
2019-06-07T10:06:17.839Z,100972.75
2019-06-07T10:11:18.544Z,100960.41
2019-06-07T10:13:48.091Z,100967.03
2019-06-07T10:16:17.616Z,100952.20
2019-06-07T10:18:47.145Z,100953.56
2019-06-07T10:21:16.607Z,100951.32
2019-06-07T10:23:46.155Z,100948.67
2019-06-07T10:26:15.714Z,100947.11
2019-06-07T10:28:45.184Z,100938.81
2019-06-07T10:31:14.794Z,100936.56
2019-06-07T10:33:44.237Z,100944.43
2019-06-07T10:36:13.821Z,100941.36
2019-06-07T10:38:44.015Z,100934.81
2019-06-07T10:41:13.502Z,100937.77
2019-06-07T10:43:43.039Z,100946.03
2019-06-07T10:46:12.674Z,100943.31
2019-06-07T10:48:42.220Z,100943.16
2019-06-07T10:51:14.603Z,100943.61
2019-06-07T10:53:42.877Z,100939.42
2019-06-07T10:56:13.357Z,100947.30
2019-06-07T10:58:43.072Z,100948.98
2019-06-07T11:01:14.312Z,100938.45
2019-06-07T11:03:43.816Z,100943.05
2019-06-07T11:06:14.241Z,100936.97
2019-06-07T11:08:44.050Z,100940.45
2019-06-07T11:11:14.400Z,100937.34
2019-06-07T11:13:44.364Z,100933.79
2019-06-07T11:16:15.727Z,100936.29
2019-06-07T11:18:45.425Z,100928.06
2019-06-07T11:21:14.872Z,100919.59
2019-06-07T11:23:44.470Z,100922.77
2019-06-07T11:26:14.479Z,100921.05
2019-06-07T11:28:44.187Z,100920.64
2019-06-07T11:31:14.934Z,100920.20
2019-06-07T11:33:44.679Z,100919.36
2019-06-07T11:36:15.327Z,100919.29
2019-06-07T11:38:45.023Z,100911.42
2019-06-07T11:41:15.671Z,100905.86
2019-06-07T11:43:45.371Z,100897.80
2019-06-07T11:46:15.176Z,100903.45
2019-06-07T11:48:44.704Z,100897.77
2019-06-07T11:51:14.911Z,100877.37
2019-06-07T11:53:44.583Z,100874.27
2019-06-07T11:56:14.095Z,100876.68
2019-06-07T11:58:43.736Z,100871.00
2019-06-07T12:01:14.925Z,100860.02
2019-06-07T12:03:44.487Z,100855.06
2019-06-07T12:06:14.543Z,100848.22
2019-06-07T12:08:44.473Z,100853.60
2019-06-07T12:11:14.388Z,100855.08
2019-06-07T12:13:44.180Z,100847.84
2019-06-07T12:16:15.260Z,100839.56
2019-06-07T12:18:45.098Z,100833.34
2019-06-07T12:21:15.814Z,100827.87
2019-06-07T12:23:45.350Z,100828.22
2019-06-07T12:26:14.893Z,100828.30
2019-06-07T12:28:44.479Z,100830.88
2019-06-07T12:31:15.037Z,100817.24
2019-06-07T12:33:44.877Z,100815.34
2019-06-07T12:36:15.785Z,100811.21
2019-06-07T12:38:45.533Z,100807.02
2019-06-07T12:41:16.111Z,100809.86
2019-06-07T12:43:45.721Z,100801.66
2019-06-07T12:46:21.093Z,100798.16
2019-06-07T12:48:46.493Z,100799.59
2019-06-07T20:23:36.385Z,100506.45
2019-06-07T20:26:06.940Z,100522.21
2019-06-07T20:28:37.544Z,100532.20
2019-06-07T20:31:08.315Z,100538.03
2019-06-07T20:33:38.908Z,100546.88
2019-06-07T20:36:09.457Z,100553.05
2019-06-07T20:38:39.993Z,100554.05
2019-06-07T20:41:10.543Z,100566.47
2019-06-07T20:43:41.099Z,100568.35
2019-06-07T20:46:11.692Z,100562.37
2019-06-07T20:48:42.228Z,100560.40
2019-06-07T20:51:12.724Z,100561.39
2019-06-07T20:53:43.238Z,100554.45
2019-06-07T20:56:13.750Z,100557.44
2019-06-07T20:58:44.312Z,100558.11
2019-06-07T21:01:14.858Z,100547.17
2019-06-07T21:03:45.380Z,100545.14
2019-06-07T21:06:15.879Z,100533.53
2019-06-07T21:08:46.401Z,100534.83
2019-06-07T21:11:16.897Z,100539.77
2019-06-07T21:13:47.399Z,100530.94
2019-06-07T21:16:17.961Z,100535.55
2019-06-07T21:18:48.442Z,100544.84
2019-06-07T21:21:19.049Z,100554.45
2019-06-07T21:23:49.600Z,100577.41
2019-06-07T21:26:20.120Z,100584.46
2019-06-07T21:28:50.743Z,100612.34
2019-06-07T21:31:21.333Z,100599.95
2019-06-07T21:33:51.844Z,100603.38
2019-06-07T21:36:22.336Z,100624.91
2019-06-07T21:38:52.861Z,100608.76
2019-06-07T21:41:23.357Z,100612.15
2019-06-07T21:43:53.947Z,100602.28
2019-06-07T21:46:24.444Z,100601.33
2019-06-07T21:48:54.938Z,100579.87
2019-06-07T21:51:25.465Z,100572.09
2019-06-07T21:53:55.969Z,100558.70
2019-06-07T21:56:26.453Z,100544.11
2019-06-07T21:58:56.983Z,100558.47
2019-06-07T22:01:30.010Z,100560.83
2019-06-07T22:04:00.503Z,100568.45
2019-06-07T22:06:31.005Z,100565.47
2019-06-07T22:09:01.480Z,100592.80
2019-06-07T22:11:31.270Z,100595.78
2019-06-07T22:14:01.824Z,100607.80
2019-06-07T22:16:32.304Z,100635.41
2019-06-07T22:19:02.773Z,100657.70
2019-06-07T22:21:33.294Z,100625.39
2019-06-07T22:24:04.810Z,100647.89
2019-06-07T22:26:35.388Z,100680.34
2019-06-07T22:29:06.297Z,100687.01
2019-06-07T22:31:36.862Z,100687.17
2019-06-07T22:34:08.668Z,100669.32
2019-06-07T22:36:39.265Z,100659.99
2019-06-07T22:39:09.765Z,100651.02
2019-06-07T22:41:40.317Z,100651.67
2019-06-07T22:44:10.943Z,100676.34
2019-06-07T22:46:41.428Z,100702.64
2019-06-07T22:49:13.231Z,100696.45
2019-06-07T22:51:43.829Z,100690.96
2019-06-07T22:54:14.325Z,100690.80
2019-06-07T22:56:58.814Z,100673.64
2019-06-07T22:59:29.296Z,100641.78
2019-06-07T23:02:00.075Z,100601.64
2019-06-07T23:04:30.595Z,100577.81
2019-06-07T23:07:01.099Z,100586.20
2019-06-07T23:09:31.584Z,100606.53
2019-06-07T23:12:02.126Z,100617.17
2019-06-07T23:14:32.641Z,100638.33
2019-06-07T23:17:03.167Z,100633.95
2019-06-07T23:19:33.689Z,100640.61
2019-06-07T23:22:04.302Z,100634.25
2019-06-07T23:24:34.838Z,100590.94
2019-06-07T23:27:05.419Z,100550.55
2019-06-07T23:29:35.958Z,100519.77
2019-06-07T23:32:06.481Z,100529.64
2019-06-07T23:34:37.027Z,100555.14
2019-06-07T23:37:07.614Z,100587.98
2019-06-07T23:39:38.281Z,100587.83
2019-06-07T23:42:08.873Z,100496.05
2019-06-07T23:44:39.373Z,100463.73
2019-06-07T23:47:11.980Z,100497.58
2019-06-07T23:49:42.146Z,100508.74
2019-06-07T23:52:13.848Z,100572.02
2019-06-07T23:54:44.496Z,100596.84
2019-06-07T23:57:16.014Z,100598.34
2019-06-07T23:59:46.634Z,100605.49
